Time;durP1;ratioP1;P1;durP2;ratioP2;P2;SDS_P1;SDS_P2;PMS_P1;PMS_P2;Temp;Humidity;BMP_temperature;BMP_pressure;BME280_temperature;BME280_humidity;BME280_pressure;Samples;Min_cycle;Max_cycle;Signal;HPM_P1;HPM_P2
2022/02/25 00:02:06;;;;;;;5.17;2.83;;;;;;;0.77;83.28;100233.75;8407105;34;20520;-77
2022/02/25 00:07:11;;;;;;;6.20;4.17;;;;;;;0.48;83.49;100247.34;8408363;34;20530;-77
2022/02/25 00:12:14;;;;;;;3.90;2.63;;;;;;;0.37;83.96;100271.56;8404526;34;20145;-77
2022/02/25 00:17:19;;;;;;;4.43;3.33;;;;;;;0.49;84.01;100273.69;8404567;34;20422;-76
2022/02/25 00:22:23;;;;;;;4.83;3.03;;;;;;;0.25;83.91;100303.75;8404976;34;20169;-76
2022/02/25 00:27:26;;;;;;;4.03;2.90;;;;;;;0.12;84.01;100313.94;8474770;28;20919;-74
2022/02/25 00:32:30;;;;;;;2.37;2.17;;;;;;;0.08;82.98;100313.22;8462371;34;20145;-74
2022/02/25 00:37:34;;;;;;;3.57;2.60;;;;;;;0.37;82.98;100327.91;8466129;34;20148;-75
2022/02/25 00:42:37;;;;;;;4.90;2.60;;;;;;;0.20;82.53;100325.06;8466522;34;20419;-74
2022/02/25 00:47:40;;;;;;;5.40;3.33;;;;;;;0.29;82.60;100345.84;8463457;34;20431;-74
2022/02/25 00:52:45;;;;;;;2.10;1.87;;;;;;;0.12;82.69;100353.56;8464044;34;20419;-74
2022/02/25 00:57:49;;;;;;;4.60;3.17;;;;;;;-0.00;83.01;100359.31;8468685;34;20761;-74
2022/02/25 01:02:53;;;;;;;7.47;3.63;;;;;;;-0.00;82.82;100367.22;8447687;34;21023;-74
2022/02/25 01:07:57;;;;;;;4.07;2.83;;;;;;;0.11;83.36;100365.03;8472010;34;20146;-74
2022/02/25 01:13:01;;;;;;;5.30;3.60;;;;;;;0.08;82.94;100366.03;8471949;34;20466;-74
2022/02/25 01:18:07;;;;;;;4.97;4.17;;;;;;;0.02;82.69;100379.47;8448552;34;20240;-74
2022/02/25 01:23:14;;;;;;;5.97;4.40;;;;;;;0.17;82.18;100368.31;8471278;34;20589;-74
2022/02/25 01:28:17;;;;;;;10.60;4.77;;;;;;;0.14;82.48;100370.22;8471682;34;20138;-74
2022/02/25 01:33:20;;;;;;;5.40;3.30;;;;;;;0.31;82.20;100373.06;8467245;34;20300;-74
2022/02/25 01:38:24;;;;;;;10.37;5.13;;;;;;;-0.09;82.99;100374.56;8467276;34;20173;-74
2022/02/25 01:43:27;;;;;;;9.90;6.23;;;;;;;0.10;83.07;100368.59;8473199;34;21115;-74
2022/02/25 01:48:30;;;;;;;8.73;4.90;;;;;;;-0.13;83.28;100366.84;8485834;34;21046;-74
2022/02/25 01:53:35;;;;;;;8.57;5.57;;;;;;;-0.01;83.40;100376.94;8478670;34;20533;-74
2022/02/25 01:58:38;;;;;;;16.80;7.70;;;;;;;-0.02;82.89;100372.59;8470752;34;20145;-74
2022/02/25 02:03:41;;;;;;;6.93;5.73;;;;;;;0.09;82.96;100380.09;8467929;34;20770;-73
2022/02/25 02:08:45;;;;;;;17.70;8.33;;;;;;;-0.09;83.44;100394.84;8442093;34;20188;-74
2022/02/25 02:13:48;;;;;;;9.17;7.00;;;;;;;-0.05;83.63;100393.81;8467895;34;20461;-74
2022/02/25 02:18:52;;;;;;;12.60;6.30;;;;;;;-0.19;83.29;100396.09;8469896;34;20511;-74
2022/02/25 02:23:58;;;;;;;8.43;5.40;;;;;;;-0.05;83.25;100393.81;8469616;34;20256;-74
2022/02/25 02:29:01;;;;;;;10.13;5.47;;;;;;;-0.16;83.01;100404.78;8469994;34;20442;-74
2022/02/25 02:34:05;;;;;;;11.20;5.03;;;;;;;-0.02;82.78;100408.69;8467380;34;20423;-74
2022/02/25 02:39:10;;;;;;;8.20;5.13;;;;;;;0.28;82.27;100404.06;8468400;34;21006;-74
2022/02/25 02:44:13;;;;;;;9.00;4.47;;;;;;;-0.08;83.25;100417.72;8441854;34;20145;-74
2022/02/25 02:49:16;;;;;;;7.97;4.67;;;;;;;0.06;82.71;100419.84;8470005;34;20425;-74
2022/02/25 02:54:21;;;;;;;10.37;5.67;;;;;;;0.22;82.18;100410.44;8469312;34;20422;-74
2022/02/25 02:59:24;;;;;;;11.03;5.53;;;;;;;0.24;82.23;100419.13;8468499;34;20328;-74
2022/02/25 03:04:27;;;;;;;7.50;5.23;;;;;;;-0.01;82.86;100432.41;8464080;34;20204;-74
2022/02/25 03:09:31;;;;;;;10.47;5.43;;;;;;;0.08;82.53;100421.50;8464136;34;20248;-74
2022/02/25 03:14:36;;;;;;;9.47;6.83;;;;;;;0.26;82.37;100433.16;8463445;34;20150;-74
2022/02/25 03:19:39;;;;;;;7.00;4.70;;;;;;;0.08;82.22;100431.19;8438851;34;20212;-75
2022/02/25 03:24:43;;;;;;;10.67;5.83;;;;;;;0.15;81.78;100438.84;8468230;34;20212;-75
2022/02/25 03:29:49;;;;;;;8.73;4.33;;;;;;;0.17;81.69;100439.66;8468288;34;20630;-75
2022/02/25 03:34:53;;;;;;;9.47;5.30;;;;;;;0.07;82.11;100446.19;8467804;34;20207;-75
2022/02/25 03:39:58;;;;;;;10.43;6.50;;;;;;;0.21;81.56;100443.03;8465911;34;20211;-75
2022/02/25 03:45:04;;;;;;;6.07;3.83;;;;;;;0.31;80.87;100462.91;8464213;34;20429;-75
2022/02/25 03:50:09;;;;;;;5.95;3.47;;;;;;;0.38;81.08;100455.59;8462732;34;21062;-75
2022/02/25 03:55:13;;;;;;;8.00;4.90;;;;;;;0.34;81.06;100451.38;8461106;34;20447;-74
2022/02/25 04:00:17;;;;;;;6.33;4.90;;;;;;;0.33;81.19;100453.16;8460613;34;20605;-75
2022/02/25 04:05:20;;;;;;;9.00;4.70;;;;;;;0.21;81.34;100434.25;8462275;34;20532;-75
2022/02/25 04:10:24;;;;;;;7.90;3.90;;;;;;;0.20;81.24;100446.59;8462595;34;20558;-74
2022/02/25 04:15:28;;;;;;;11.30;4.20;;;;;;;0.27;80.68;100444.59;8467961;34;20703;-74
2022/02/25 04:20:31;;;;;;;8.93;4.07;;;;;;;0.29;80.15;100433.03;8468629;34;20579;-74
2022/02/25 04:25:35;;;;;;;12.43;4.90;;;;;;;0.37;80.29;100438.03;8442130;34;20496;-75
2022/02/25 04:30:39;;;;;;;6.23;4.33;;;;;;;0.19;80.41;100450.16;8462148;34;20449;-75
2022/02/25 04:35:42;;;;;;;7.33;3.87;;;;;;;0.34;80.37;100446.94;8442620;34;20134;-75
2022/02/25 04:40:47;;;;;;;11.07;3.97;;;;;;;0.19;79.94;100452.78;8470787;34;20435;-75
2022/02/25 04:45:50;;;;;;;9.47;4.57;;;;;;;0.19;80.01;100462.50;8473200;34;20248;-75
2022/02/25 04:50:54;;;;;;;6.20;2.67;;;;;;;0.24;80.19;100439.41;8470351;34;20484;-75
2022/02/25 04:55:58;;;;;;;5.30;3.60;;;;;;;0.39;79.65;100441.50;8470391;34;20157;-76
2022/02/25 05:01:01;;;;;;;6.67;4.10;;;;;;;0.36;79.86;100436.34;8470728;34;20465;-76
2022/02/25 05:06:05;;;;;;;6.57;3.60;;;;;;;-0.04;80.50;100452.78;8448437;34;20173;-75
2022/02/25 05:11:09;;;;;;;4.53;3.97;;;;;;;0.07;79.90;100469.97;8466888;34;20152;-76
2022/02/25 05:21:33;;;;;;;8.27;4.00;;;;;;;0.11;79.89;100466.31;8468754;34;20145;-76
2022/02/25 05:26:37;;;;;;;8.40;4.20;;;;;;;0.05;80.03;100453.28;8467689;34;20283;-76
2022/02/25 05:31:40;;;;;;;6.37;3.47;;;;;;;0.26;78.81;100469.28;8468590;34;21019;-76
2022/02/25 05:36:44;;;;;;;6.53;3.73;;;;;;;0.13;78.83;100460.94;8470297;34;20134;-76
2022/02/25 05:41:48;;;;;;;7.70;3.67;;;;;;;0.21;79.07;100460.69;8449035;34;20865;-76
2022/02/25 05:46:51;;;;;;;5.23;3.67;;;;;;;0.45;78.08;100465.03;8468033;34;20161;-75
2022/02/25 05:51:54;;;;;;;7.70;3.10;;;;;;;0.27;78.03;100465.72;8464692;34;20428;-76
2022/02/25 05:56:58;;;;;;;11.30;3.00;;;;;;;0.21;77.58;100464.16;8466249;34;20549;-76
2022/02/25 06:02:02;;;;;;;5.23;2.87;;;;;;;0.12;78.64;100457.44;8441568;34;20458;-75
2022/02/25 06:07:05;;;;;;;4.43;3.07;;;;;;;0.12;78.52;100470.66;8468868;34;20154;-76
2022/02/25 06:12:10;;;;;;;7.43;3.13;;;;;;;0.31;77.77;100477.91;8476118;34;20488;-76
2022/02/25 06:17:13;;;;;;;11.70;2.80;;;;;;;-0.03;79.06;100487.03;8468333;34;20415;-76
2022/02/25 06:22:17;;;;;;;4.97;3.53;;;;;;;0.22;78.27;100492.34;8457397;34;20410;-78
2022/02/25 06:27:21;;;;;;;8.43;3.60;;;;;;;0.30;77.68;100487.63;8462975;34;20183;-75
2022/02/25 06:32:25;;;;;;;8.47;3.53;;;;;;;0.20;78.15;100499.44;8459279;34;20267;-78
2022/02/25 06:37:28;;;;;;;6.70;2.53;;;;;;;0.13;78.71;100492.66;8488901;34;20144;-76
2022/02/25 06:42:34;;;;;;;9.03;3.33;;;;;;;0.29;78.10;100491.16;8482827;34;20410;-76
2022/02/25 06:47:37;;;;;;;5.80;2.67;;;;;;;0.17;78.18;100503.06;8471542;34;20146;-76
2022/02/25 06:52:41;;;;;;;10.93;4.23;;;;;;;0.22;78.33;100499.38;8452484;34;20156;-76
2022/02/25 06:57:46;;;;;;;2.77;1.90;;;;;;;0.41;78.21;100515.41;8481359;34;20153;-77
2022/02/25 07:02:50;;;;;;;13.83;3.73;;;;;;;0.64;76.83;100511.94;8483054;34;20517;-76
2022/02/25 07:07:55;;;;;;;7.90;2.90;;;;;;;0.77;76.54;100505.28;8474829;34;20444;-77
2022/02/25 07:13:08;;;;;;;5.27;3.63;;;;;;;0.75;76.52;100513.25;8472671;34;20148;-76
2022/02/25 07:18:13;;;;;;;4.30;3.40;;;;;;;0.50;77.11;100510.66;8480517;34;20150;-76
2022/02/25 07:23:17;;;;;;;8.53;2.60;;;;;;;0.74;75.93;100515.94;8468697;34;20153;-77
2022/02/25 07:28:22;;;;;;;7.13;3.10;;;;;;;0.66;76.21;100508.31;8474897;34;21130;-77
2022/02/25 07:33:25;;;;;;;6.03;3.50;;;;;;;0.78;76.11;100522.84;8445969;34;20216;-77
2022/02/25 07:38:28;;;;;;;7.60;3.03;;;;;;;1.04;75.39;100535.06;8468039;34;20153;-77
2022/02/25 07:43:32;;;;;;;10.90;3.50;;;;;;;1.08;75.01;100519.94;8470462;34;20229;-77
2022/02/25 07:48:35;;;;;;;8.37;2.93;;;;;;;1.22;75.19;100533.47;8441315;34;20433;-77
2022/02/25 07:53:39;;;;;;;5.33;2.87;;;;;;;1.01;75.98;100532.53;8468908;34;20982;-76
2022/02/25 07:58:44;;;;;;;5.75;2.95;;;;;;;1.04;75.71;100528.00;8464592;34;20434;-77
2022/02/25 08:03:47;;;;;;;13.93;3.13;;;;;;;0.97;75.95;100542.38;8462246;34;20679;-77
2022/02/25 08:08:50;;;;;;;7.77;2.80;;;;;;;0.96;75.75;100545.06;8466547;34;20474;-76
2022/02/25 08:13:54;;;;;;;6.90;3.17;;;;;;;1.24;75.35;100537.78;8464586;34;20644;-76
2022/02/25 08:18:58;;;;;;;7.00;2.87;;;;;;;1.25;75.46;100542.16;8465281;34;20503;-76
2022/02/25 08:24:01;;;;;;;10.87;3.60;;;;;;;1.36;75.08;100533.78;8462980;34;20130;-77
2022/02/25 08:29:05;;;;;;;12.63;3.97;;;;;;;1.56;73.32;100551.50;8468784;34;20179;-79
2022/02/25 08:34:09;;;;;;;3.72;2.53;;;;;;;1.67;73.74;100532.50;8492685;33;20148;-77
2022/02/25 08:39:12;;;;;;;12.20;3.10;;;;;;;1.67;74.18;100551.06;8501259;33;20157;-76
2022/02/25 08:44:16;;;;;;;6.97;3.25;;;;;;;1.65;73.25;100550.28;8476550;33;20244;-76
2022/02/25 08:49:19;;;;;;;7.03;2.72;;;;;;;1.78;74.62;100540.00;8494481;33;20407;-76
2022/02/25 08:54:23;;;;;;;9.43;4.20;;;;;;;1.63;74.30;100582.09;8490472;33;20447;-78
2022/02/25 08:59:27;;;;;;;9.90;4.50;;;;;;;1.58;75.33;100543.50;8466532;34;20471;-76
2022/02/25 09:04:30;;;;;;;9.43;4.38;;;;;;;1.70;74.96;100551.81;8441195;34;20157;-76
2022/02/25 09:09:33;;;;;;;5.95;3.85;;;;;;;1.70;75.68;100570.34;8464058;34;20156;-77
2022/02/25 09:14:37;;;;;;;7.35;4.10;;;;;;;1.48;77.30;100578.31;8464457;34;20487;-76
2022/02/25 09:19:41;;;;;;;13.35;3.88;;;;;;;1.16;80.90;100568.13;8440888;34;20505;-75
2022/02/25 09:24:44;;;;;;;18.13;7.88;;;;;;;1.04;80.79;100566.78;8463035;34;20145;-76
2022/02/25 09:29:48;;;;;;;12.65;6.45;;;;;;;1.14;81.67;100580.56;8468640;34;20352;-76
2022/02/25 09:34:52;;;;;;;11.93;5.53;;;;;;;1.09;80.73;100590.44;8470859;34;20430;-75
2022/02/25 09:39:55;;;;;;;10.77;5.60;;;;;;;1.46;80.37;100593.38;8447140;34;20434;-76
2022/02/25 09:45:00;;;;;;;18.90;9.10;;;;;;;1.17;82.95;100591.00;8490377;33;20479;-77
2022/02/25 09:50:05;;;;;;;11.77;7.03;;;;;;;0.97;85.44;100605.88;8470077;34;20447;-75
2022/02/25 09:55:12;;;;;;;10.10;7.07;;;;;;;0.69;86.14;100618.41;8469223;34;20567;-77
2022/02/25 10:00:18;;;;;;;14.13;7.40;;;;;;;0.54;87.27;100615.38;8467639;34;20649;-76
2022/02/25 10:05:25;;;;;;;15.17;8.87;;;;;;;0.99;86.17;100627.84;8471818;34;20604;-77
2022/02/25 10:10:29;;;;;;;13.90;7.07;;;;;;;1.02;85.88;100656.81;8475227;34;20196;-76
2022/02/25 10:15:37;;;;;;;16.33;8.60;;;;;;;1.50;84.03;100639.13;8460582;34;20870;-76
2022/02/25 10:20:41;;;;;;;9.75;6.22;;;;;;;1.46;83.19;100659.56;8471609;33;20668;-76
2022/02/25 10:25:52;;;;;;;12.30;6.63;;;;;;;1.67;82.69;100652.56;8511451;33;20462;-76
2022/02/25 10:31:23;;;;;;;16.52;5.60;;;;;;;1.38;83.09;100659.00;8516632;33;20148;-76
2022/02/25 10:36:44;;;;;;;16.75;7.10;;;;;;;1.49;82.88;100669.19;8517385;33;20141;-76
2022/02/25 10:42:06;;;;;;;9.85;5.57;;;;;;;1.60;82.78;100666.13;8493514;33;20419;-76
2022/02/25 10:47:20;;;;;;;19.23;7.85;;;;;;;1.79;82.89;100674.19;8513335;33;20422;-76
2022/02/25 10:52:27;;;;;;;10.73;6.13;;;;;;;1.87;82.15;100675.59;8488493;33;20160;-76
2022/02/25 10:57:31;;;;;;;13.35;7.38;;;;;;;2.21;80.89;100674.22;8512031;33;20397;-76
2022/02/25 11:02:38;;;;;;;13.82;6.03;;;;;;;2.51;79.27;100677.38;8516718;33;20510;-78
2022/02/25 11:07:45;;;;;;;14.70;6.60;;;;;;;3.05;78.79;100698.94;8514093;33;20479;-76
2022/02/25 11:12:51;;;;;;;10.05;5.70;;;;;;;3.13;77.01;100694.16;8493745;33;20546;-76
2022/02/25 11:17:56;;;;;;;7.68;4.28;;;;;;;3.00;77.59;100704.44;8495201;33;20247;-76
2022/02/25 11:23:02;;;;;;;9.52;5.30;;;;;;;3.06;77.70;100701.50;8518117;33;20426;-77
2022/02/25 11:28:06;;;;;;;14.48;5.05;;;;;;;3.47;75.48;100701.41;8525122;33;20521;-75
2022/02/25 11:33:15;;;;;;;10.40;5.97;;;;;;;3.41;76.02;100698.19;8495167;33;20929;-75
2022/02/25 11:38:28;;;;;;;11.98;4.35;;;;;;;3.77;74.16;100692.94;8514766;33;20454;-75
2022/02/25 11:43:42;;;;;;;13.40;5.15;;;;;;;4.07;73.56;100714.53;8518232;33;20432;-77
2022/02/25 11:48:50;;;;;;;4.10;2.35;;;;;;;5.97;68.13;100698.34;8518840;33;20670;-78
2022/02/25 11:54:24;;;;;;;8.77;3.60;;;;;;;3.91;73.92;100714.41;8452943;33;20442;-76
2022/02/25 12:00:18;;;;;;;8.70;3.38;;;;;;;3.20;79.59;100724.78;8528315;33;20179;-77
2022/02/25 12:05:23;;;;;;;7.13;4.73;;;;;;;2.70;84.33;100696.03;8530870;33;20405;-76
2022/02/25 12:10:35;;;;;;;7.05;3.80;;;;;;;2.78;86.09;100717.78;8495135;33;20140;-76
2022/02/25 12:15:42;;;;;;;10.73;5.07;;;;;;;2.57;87.09;100706.31;8520428;33;20445;-78
2022/02/25 12:20:51;;;;;;;9.48;5.55;;;;;;;2.62;85.83;100698.16;8520119;33;20219;-76
2022/02/25 12:25:58;;;;;;;10.05;5.03;;;;;;;2.36;88.10;100702.75;8496496;33;20269;-77
2022/02/25 12:31:03;;;;;;;11.85;5.85;;;;;;;2.58;89.34;100701.88;8492642;33;20461;-78
2022/02/25 12:36:12;;;;;;;9.07;4.93;;;;;;;1.91;92.05;100730.19;8503068;33;20416;-77
2022/02/25 12:41:21;;;;;;;16.85;6.70;;;;;;;1.89;93.12;100721.47;8523493;33;20511;-76
2022/02/25 12:46:31;;;;;;;12.23;3.90;;;;;;;1.73;93.05;100707.09;8504315;33;20429;-76
2022/02/25 12:51:36;;;;;;;8.77;3.28;;;;;;;1.73;92.65;100720.34;8523398;33;20611;-74
2022/02/25 12:56:45;;;;;;;0.50;0.50;;;;;;;1.79;90.72;100719.22;8503853;33;20287;-75
2022/02/25 13:01:50;;;;;;;0.50;0.50;;;;;;;2.44;92.99;100720.13;8504475;33;20913;-76
2022/02/25 13:06:58;;;;;;;0.50;0.50;;;;;;;3.69;88.71;100705.72;8529230;33;20134;-76
2022/02/25 13:12:04;;;;;;;0.60;0.60;;;;;;;4.11;82.22;100744.47;8538101;33;20183;-76
2022/02/25 13:17:10;;;;;;;0.60;0.60;;;;;;;3.60;82.07;100733.59;8542637;33;20560;-76
2022/02/25 13:22:18;;;;;;;1.95;1.85;;;;;;;3.71;81.10;100757.88;8517681;33;20450;-74
2022/02/25 13:27:41;;;;;;;0.50;0.50;;;;;;;3.69;80.91;100757.06;8541717;33;20172;-75
2022/02/25 13:32:48;;;;;;;0.60;0.60;;;;;;;3.58;80.38;100754.06;8541687;33;20469;-75
2022/02/25 13:37:57;;;;;;;0.60;0.60;;;;;;;3.19;81.47;100831.06;8529344;33;20705;-76
2022/02/25 13:43:01;;;;;;;0.50;0.50;;;;;;;2.15;84.70;100860.03;8527120;33;20148;-75
2022/02/25 13:53:39;;;;;;;0.40;0.40;;;;;;;1.45;87.35;100847.59;8512469;33;20161;-76
2022/02/25 13:58:42;;;;;;;0.50;0.50;;;;;;;1.36;86.68;100859.38;8514310;33;21140;-77
2022/02/25 14:03:46;;;;;;;0.60;0.60;;;;;;;1.53;85.98;100860.56;8525977;33;21145;-78
2022/02/25 14:08:56;;;;;;;0.60;0.60;;;;;;;1.67;86.62;100856.50;8497128;33;20744;-78
2022/02/25 14:13:59;;;;;;;0.50;0.50;;;;;;;2.02;85.42;100858.75;8522009;33;20955;-77
2022/02/25 14:19:18;;;;;;;0.50;0.50;;;;;;;2.20;84.36;100858.06;8518836;33;20247;-78
2022/02/25 14:24:29;;;;;;;0.73;0.73;;;;;;;3.92;80.46;100853.47;8520984;33;20148;-77
2022/02/25 14:29:33;;;;;;;0.60;0.60;;;;;;;4.66;77.67;100858.81;8517570;33;20403;-78
2022/02/25 14:34:43;;;;;;;0.50;0.50;;;;;;;4.48;74.99;100849.09;8517117;33;20480;-78
2022/02/25 14:39:47;;;;;;;0.40;0.40;;;;;;;3.94;76.09;100863.09;8466577;33;20573;-76
2022/02/25 14:44:51;;;;;;;0.50;0.50;;;;;;;4.15;77.43;100874.56;8464610;34;20507;-78
2022/02/25 14:49:55;;;;;;;0.50;0.50;;;;;;;4.28;75.50;100880.16;8466126;33;20429;-78
2022/02/25 14:55:03;;;;;;;0.40;0.40;;;;;;;4.19;75.05;100880.59;8468861;33;20558;-78
2022/02/25 15:00:10;;;;;;;0.68;0.68;;;;;;;5.05;75.38;100865.84;8462973;33;20252;-76
2022/02/25 15:05:14;;;;;;;0.60;0.60;;;;;;;4.52;72.97;100887.91;8479374;33;20503;-76
2022/02/25 15:10:22;;;;;;;0.60;0.60;;;;;;;4.73;73.13;100913.50;8489865;33;20430;-76
2022/02/25 15:15:28;;;;;;;1.55;1.25;;;;;;;5.18;72.74;100924.66;8510774;33;20486;-76
2022/02/25 15:20:31;;;;;;;0.60;0.60;;;;;;;3.94;78.88;100948.16;8511191;33;20506;-76
2022/02/25 15:25:35;;;;;;;0.40;0.40;;;;;;;2.47;89.07;100988.72;8512666;33;21021;-77
2022/02/25 15:30:39;;;;;;;0.60;0.60;;;;;;;2.34;91.29;101011.31;8490906;33;20464;-76
2022/02/25 15:35:42;;;;;;;1.20;1.20;;;;;;;2.05;91.85;100999.94;8521939;33;20185;-77
2022/02/25 15:40:46;;;;;;;0.55;0.55;;;;;;;1.78;92.56;100993.84;8522607;33;20180;-77
2022/02/25 15:45:51;;;;;;;0.50;0.50;;;;;;;1.61;93.23;100991.78;8501684;33;20428;-77
2022/02/25 15:50:54;;;;;;;0.50;0.50;;;;;;;1.68;92.55;100989.81;8502108;33;21087;-78
2022/02/25 15:55:59;;;;;;;0.50;0.50;;;;;;;1.67;91.93;101003.94;8524443;33;20491;-78
2022/02/25 16:01:07;;;;;;;0.60;0.60;;;;;;;1.81;91.97;101020.25;8525500;33;20153;-79
2022/02/25 16:06:10;;;;;;;0.60;0.60;;;;;;;1.94;91.28;101026.84;8526487;33;20550;-77
2022/02/25 16:11:15;;;;;;;0.73;0.73;;;;;;;2.13;90.20;101034.13;8524862;33;20413;-77
2022/02/25 16:16:19;;;;;;;1.50;1.50;;;;;;;2.10;90.61;101032.47;8532222;33;20558;-76
2022/02/25 16:21:22;;;;;;;0.50;0.50;;;;;;;2.06;89.86;101038.81;8499186;33;20645;-77
2022/02/25 16:26:27;;;;;;;0.50;0.50;;;;;;;2.22;89.61;101047.06;8524736;33;20462;-78
2022/02/25 16:31:30;;;;;;;0.50;0.50;;;;;;;2.19;89.48;101049.81;8529509;33;20156;-77
2022/02/25 16:36:33;;;;;;;0.50;0.50;;;;;;;2.13;89.48;101066.81;8531050;33;20180;-76
2022/02/25 16:41:38;;;;;;;1.05;1.05;;;;;;;2.43;90.96;101117.03;8529653;33;20148;-77
2022/02/25 16:46:41;;;;;;;1.67;1.60;;;;;;;2.52;90.97;101142.34;8530104;33;20213;-76
2022/02/25 16:51:44;;;;;;;0.73;0.73;;;;;;;2.33;91.03;101131.53;8542917;33;20584;-77
2022/02/25 16:56:50;;;;;;;0.55;0.55;;;;;;;2.11;90.78;101142.00;8518272;33;20470;-76
2022/02/25 17:01:53;;;;;;;0.70;0.70;;;;;;;2.02;90.67;101137.00;8520506;33;20160;-76
2022/02/25 17:07:02;;;;;;;0.50;0.50;;;;;;;1.91;90.59;101166.50;8544422;33;20180;-77
2022/02/25 17:12:08;;;;;;;0.50;0.50;;;;;;;1.73;90.68;101182.09;8547599;33;20907;-77
2022/02/25 17:17:12;;;;;;;0.88;0.88;;;;;;;1.64;90.46;101190.31;8547052;33;20398;-76
2022/02/25 17:22:16;;;;;;;0.60;0.60;;;;;;;1.46;90.23;101197.06;8547213;33;20416;-75
2022/02/25 17:27:22;;;;;;;0.50;0.50;;;;;;;1.45;90.60;101200.63;8543819;33;20976;-78
2022/02/25 17:32:25;;;;;;;0.50;0.50;;;;;;;1.26;90.66;101221.47;8542299;33;20407;-78
2022/02/25 17:37:29;;;;;;;0.90;0.90;;;;;;;1.29;90.66;101231.13;8547383;33;20682;-76
2022/02/25 17:42:33;;;;;;;0.50;0.50;;;;;;;1.24;90.68;101231.25;8538765;33;20705;-77
2022/02/25 17:47:37;;;;;;;0.80;0.80;;;;;;;1.23;90.46;101245.38;8539161;33;20469;-77
2022/02/25 17:52:47;;;;;;;0.77;0.77;;;;;;;1.14;90.44;101250.94;8537919;33;20570;-76
2022/02/25 17:57:51;;;;;;;0.60;0.60;;;;;;;1.03;90.66;101253.88;8530764;33;20141;-76
2022/02/25 18:02:55;;;;;;;0.70;0.70;;;;;;;0.79;91.15;101267.75;8526556;33;20844;-76
2022/02/25 18:07:58;;;;;;;0.80;0.80;;;;;;;0.67;91.76;101278.69;8526078;33;20635;-76
2022/02/25 18:13:08;;;;;;;1.30;1.30;;;;;;;0.79;91.91;101288.91;8504601;33;20168;-76
2022/02/25 18:18:11;;;;;;;0.60;0.60;;;;;;;0.71;92.02;101290.91;8506795;33;20842;-76
2022/02/25 18:23:15;;;;;;;0.50;0.50;;;;;;;0.80;91.94;101302.13;8504712;33;20145;-77
2022/02/25 18:28:20;;;;;;;0.70;0.70;;;;;;;0.87;92.29;101308.09;8543688;27;20182;-73
2022/02/25 18:33:23;;;;;;;0.57;0.57;;;;;;;1.03;91.72;101330.63;8523784;33;20148;-72
2022/02/25 18:38:26;;;;;;;0.70;0.70;;;;;;;1.13;91.68;101336.53;8524183;33;20152;-74
2022/02/25 18:43:30;;;;;;;0.80;0.80;;;;;;;1.27;91.16;101334.38;8523592;33;20145;-72
2022/02/25 18:48:34;;;;;;;6.78;3.28;;;;;;;1.12;91.02;101347.16;8522856;33;20502;-73
2022/02/25 18:53:37;;;;;;;8.82;3.63;;;;;;;1.38;90.25;101367.66;8522263;33;20272;-73
2022/02/25 18:58:44;;;;;;;12.68;5.05;;;;;;;1.36;90.76;101391.50;8521749;33;20420;-73
2022/02/25 19:03:47;;;;;;;8.10;4.65;;;;;;;1.36;90.36;101396.81;8522880;33;20411;-71
2022/02/25 19:08:50;;;;;;;10.38;4.85;;;;;;;1.49;89.93;101400.88;8523422;33;20534;-72
2022/02/25 19:13:54;;;;;;;10.23;3.17;;;;;;;1.30;90.14;101422.59;8522317;33;20440;-72
2022/02/25 19:18:58;;;;;;;5.30;2.80;;;;;;;1.24;88.81;101420.97;8521835;33;20467;-72
2022/02/25 19:24:01;;;;;;;3.88;2.30;;;;;;;1.48;87.74;101430.03;8523066;33;20235;-74
2022/02/25 19:29:06;;;;;;;7.80;3.50;;;;;;;1.43;88.39;101432.81;8524575;33;20679;-72
2022/02/25 19:34:10;;;;;;;8.88;2.92;;;;;;;1.33;88.51;101447.19;8524596;33;20542;-73
2022/02/25 19:39:13;;;;;;;13.80;7.30;;;;;;;1.38;88.09;101455.91;8502024;33;20152;-72
2022/02/25 19:44:18;;;;;;;8.80;3.67;;;;;;;1.15;88.34;101466.19;8522259;33;20414;-73
2022/02/25 19:49:21;;;;;;;11.93;6.07;;;;;;;1.06;88.14;101469.91;8515214;33;20210;-71
2022/02/25 19:54:24;;;;;;;15.95;5.95;;;;;;;1.10;88.28;101489.22;8515250;33;20441;-72
2022/02/25 19:59:29;;;;;;;14.45;6.97;;;;;;;1.24;87.79;101495.09;8517957;33;20532;-72
2022/02/25 20:04:32;;;;;;;9.07;4.35;;;;;;;1.20;86.83;101504.00;8520099;33;20144;-72
2022/02/25 20:09:35;;;;;;;22.33;5.78;;;;;;;1.11;87.11;101514.81;8495472;33;20642;-73
2022/02/25 20:14:40;;;;;;;12.35;4.38;;;;;;;0.93;87.03;101522.25;8565908;33;20144;-72
2022/02/25 20:19:43;;;;;;;6.33;3.10;;;;;;;1.03;86.62;101542.31;8486351;33;20670;-72
2022/02/25 20:24:46;;;;;;;7.03;2.70;;;;;;;0.98;86.86;101545.97;8498928;33;20458;-74
2022/02/25 20:29:51;;;;;;;9.88;2.45;;;;;;;0.86;86.76;101563.00;8501201;33;20418;-72
2022/02/25 20:34:54;;;;;;;7.80;2.37;;;;;;;0.73;86.81;101561.53;8536391;33;20144;-72
2022/02/25 20:39:57;;;;;;;9.27;4.17;;;;;;;0.86;87.10;101570.94;8536737;33;20646;-74
2022/02/25 20:45:02;;;;;;;12.77;4.75;;;;;;;0.68;87.83;101584.53;8541649;33;20189;-71
2022/02/25 20:50:08;;;;;;;10.18;4.50;;;;;;;0.79;87.45;101577.25;8539428;33;20141;-71
2022/02/25 20:55:12;;;;;;;10.85;4.47;;;;;;;1.22;86.25;101601.00;8541814;33;20801;-73
2022/02/25 21:00:33;;;;;;;9.52;2.67;;;;;;;1.24;86.51;101608.91;8541437;33;20864;-72
2022/02/25 21:05:37;;;;;;;7.43;2.53;;;;;;;0.93;87.11;101625.44;8541104;33;20613;-72
2022/02/25 21:10:41;;;;;;;7.00;3.35;;;;;;;1.14;86.80;101634.72;8537861;33;20486;-72
2022/02/25 21:15:45;;;;;;;11.70;3.83;;;;;;;1.13;87.19;101634.75;8536716;33;20238;-72
2022/02/25 21:20:49;;;;;;;9.90;3.17;;;;;;;1.15;87.01;101646.16;8539667;33;20436;-73
2022/02/25 21:25:52;;;;;;;15.38;8.45;;;;;;;1.03;87.22;101648.16;8538409;33;21041;-74
2022/02/25 21:30:57;;;;;;;15.80;6.30;;;;;;;0.98;86.65;101654.47;8540199;33;21148;-72
2022/02/25 21:36:00;;;;;;;6.65;3.22;;;;;;;1.08;86.65;101652.50;8540668;33;20232;-72
2022/02/25 21:41:04;;;;;;;18.25;12.15;;;;;;;1.04;86.67;101667.56;8538904;33;21024;-73
2022/02/25 21:46:08;;;;;;;14.85;8.45;;;;;;;1.04;86.95;101683.44;8540883;33;20257;-74
2022/02/25 21:51:12;;;;;;;20.38;11.20;;;;;;;1.08;86.55;101686.91;8540582;33;20117;-72
2022/02/25 21:56:15;;;;;;;26.60;11.85;;;;;;;1.02;86.75;101694.06;8527146;33;20493;-73
2022/02/25 22:01:20;;;;;;;16.08;6.97;;;;;;;1.18;86.96;101705.22;8500322;33;20418;-72
2022/02/25 22:06:27;;;;;;;14.30;5.03;;;;;;;1.12;87.17;101705.31;8525303;33;20787;-72
2022/02/25 22:11:30;;;;;;;8.30;3.70;;;;;;;1.18;86.75;101717.56;8525006;33;20462;-72
2022/02/25 22:16:36;;;;;;;9.80;4.07;;;;;;;1.15;86.87;101718.53;8524869;33;21061;-74
2022/02/25 22:21:42;;;;;;;9.88;5.20;;;;;;;1.10;87.22;101730.09;8525046;33;20144;-72
2022/02/25 22:26:45;;;;;;;10.18;4.38;;;;;;;1.02;87.33;101735.56;8524729;33;20412;-72
2022/02/25 22:31:49;;;;;;;10.98;5.07;;;;;;;1.22;86.92;101733.38;8500381;33;20417;-72
2022/02/25 22:36:52;;;;;;;13.10;4.72;;;;;;;1.06;86.68;101742.53;8522052;33;20240;-74
2022/02/25 22:41:55;;;;;;;17.25;5.90;;;;;;;1.03;87.14;101743.44;8520443;33;20468;-72
2022/02/25 22:47:00;;;;;;;15.17;5.30;;;;;;;0.69;88.29;101752.94;8526474;33;20423;-71
2022/02/25 23:02:46;;;;;;;16.47;4.77;;;;;;;0.79;88.00;101765.94;8523850;33;20290;-72
2022/02/25 23:07:49;;;;;;;10.23;4.97;;;;;;;0.57;88.18;101770.75;8523946;33;20938;-72
2022/02/25 23:12:55;;;;;;;23.43;6.50;;;;;;;0.37;89.80;101786.09;8522839;33;20125;-71
2022/02/25 23:18:00;;;;;;;8.47;4.73;;;;;;;0.22;89.63;101789.88;8499178;33;20153;-72
2022/02/25 23:23:03;;;;;;;11.97;5.03;;;;;;;0.24;89.34;101797.75;8526674;33;20144;-71
2022/02/25 23:28:06;;;;;;;8.57;4.45;;;;;;;0.17;89.93;101794.34;8528536;33;20330;-72
2022/02/25 23:33:11;;;;;;;18.93;5.33;;;;;;;-0.04;89.92;101802.59;8503080;33;20439;-71
2022/02/25 23:38:14;;;;;;;14.03;5.00;;;;;;;0.04;89.76;101806.84;8541834;33;20223;-73
2022/02/25 23:43:17;;;;;;;16.03;5.00;;;;;;;0.19;89.57;101816.31;8523191;33;20428;-71
2022/02/25 23:48:22;;;;;;;17.33;5.00;;;;;;;0.31;88.86;101818.78;8520135;33;20482;-73
2022/02/25 23:53:26;;;;;;;10.60;4.65;;;;;;;0.39;88.89;101824.81;8518886;33;20929;-74
2022/02/25 23:58:30;;;;;;;16.58;4.65;;;;;;;0.31;88.76;101826.72;8517895;33;20518;-74
